Time;durP1;ratioP1;P1;durP2;ratioP2;P2;SDS_P1;SDS_P2;PMS_P1;PMS_P2;Temp;Humidity;BMP_temperature;BMP_pressure;BME280_temperature;BME280_humidity;BME280_pressure;Samples;Min_cycle;Max_cycle;Signal;HPM_P1;HPM_P2
2023/01/22 00:01:16;;;;;;;5.40;4.75;;;0.60;99.90;;;;;;5001142;28;20087;-57
2023/01/22 00:03:42;;;;;;;5.70;5.10;;;0.60;99.90;;;;;;5001373;28;20033;-59
2023/01/22 00:06:09;;;;;;;7.88;5.32;;;0.60;99.90;;;;;;5000059;28;20042;-59
2023/01/22 00:08:35;;;;;;;5.70;5.10;;;0.60;99.90;;;;;;5001791;28;20144;-59
2023/01/22 00:11:01;;;;;;;5.65;4.97;;;0.70;99.90;;;;;;5001488;28;20065;-58
2023/01/22 00:13:27;;;;;;;10.00;4.93;;;0.60;99.90;;;;;;5001169;28;20026;-56
2023/01/22 00:15:55;;;;;;;6.95;5.13;;;0.60;99.90;;;;;;5001101;28;20162;-56
2023/01/22 00:18:21;;;;;;;7.15;5.72;;;0.60;99.90;;;;;;4999202;28;20057;-58
2023/01/22 00:20:51;;;;;;;6.80;5.03;;;0.60;99.90;;;;;;4999320;28;20038;-59
2023/01/22 00:23:17;;;;;;;6.22;5.10;;;0.60;99.90;;;;;;4999253;28;20574;-58
2023/01/22 00:25:43;;;;;;;7.20;5.65;;;0.60;99.90;;;;;;5000931;28;20022;-58
2023/01/22 00:28:10;;;;;;;7.63;5.75;;;0.60;99.90;;;;;;4999962;28;20066;-50
2023/01/22 00:30:35;;;;;;;8.40;5.63;;;0.60;99.90;;;;;;4999927;28;20041;-55
2023/01/22 00:33:01;;;;;;;10.25;5.07;;;0.60;99.90;;;;;;5002041;28;20038;-59
2023/01/22 00:35:27;;;;;;;5.30;4.80;;;0.60;99.90;;;;;;5000435;28;20040;-60
2023/01/22 00:37:52;;;;;;;5.85;4.88;;;0.60;99.90;;;;;;4998636;28;20030;-56
2023/01/22 00:40:18;;;;;;;8.00;5.38;;;0.60;99.90;;;;;;4998457;28;20029;-57
2023/01/22 00:42:44;;;;;;;6.90;5.05;;;0.60;99.90;;;;;;5001074;28;20045;-59
2023/01/22 00:45:12;;;;;;;6.75;5.43;;;0.50;99.90;;;;;;4999363;28;20120;-58
2023/01/22 00:47:38;;;;;;;6.43;5.10;;;0.50;99.90;;;;;;5000482;28;20034;-55
2023/01/22 00:50:04;;;;;;;6.85;5.47;;;0.60;99.90;;;;;;4999288;28;20566;-60
2023/01/22 00:52:29;;;;;;;9.52;5.65;;;0.60;99.90;;;;;;4999236;28;20034;-57
2023/01/22 00:54:55;;;;;;;5.55;5.03;;;0.60;99.90;;;;;;5000293;28;20029;-59
2023/01/22 00:57:20;;;;;;;5.88;5.35;;;0.60;99.90;;;;;;5000600;28;20051;-56
2023/01/22 00:59:47;;;;;;;6.78;5.70;;;0.60;99.90;;;;;;4998137;28;20038;-54
2023/01/22 01:02:13;;;;;;;6.55;5.40;;;0.60;99.90;;;;;;4998964;28;20056;-58
2023/01/22 01:04:39;;;;;;;7.28;5.68;;;0.50;99.90;;;;;;4997543;28;20232;-53
2023/01/22 01:07:05;;;;;;;6.05;5.30;;;0.50;99.90;;;;;;4998964;28;20447;-57
2023/01/22 01:09:30;;;;;;;6.82;5.30;;;0.50;99.90;;;;;;4998519;28;20033;-55
2023/01/22 01:11:56;;;;;;;5.57;4.97;;;0.50;99.90;;;;;;4998600;28;20098;-57
2023/01/22 01:14:21;;;;;;;6.78;5.60;;;0.50;99.90;;;;;;4999442;28;20050;-57
2023/01/22 01:16:49;;;;;;;6.30;5.10;;;0.50;99.90;;;;;;4999589;28;20109;-55
2023/01/22 01:19:16;;;;;;;7.43;4.63;;;0.50;99.90;;;;;;4999061;28;20034;-58
2023/01/22 01:21:42;;;;;;;5.07;4.53;;;0.50;99.90;;;;;;4999441;28;20095;-57
2023/01/22 01:24:09;;;;;;;6.55;4.63;;;0.50;99.90;;;;;;4999767;28;20580;-55
2023/01/22 01:26:35;;;;;;;5.38;4.55;;;0.50;99.90;;;;;;4993110;28;20060;-58
2023/01/22 01:29:03;;;;;;;4.78;4.35;;;0.50;99.90;;;;;;4998496;28;20058;-57
2023/01/22 01:31:29;;;;;;;8.02;4.55;;;0.50;99.90;;;;;;4999421;28;20057;-56
2023/01/22 01:33:55;;;;;;;4.65;4.10;;;0.50;99.90;;;;;;5000040;28;20042;-58
2023/01/22 01:36:23;;;;;;;4.60;4.20;;;0.50;99.90;;;;;;4998912;28;20038;-54
2023/01/22 01:38:50;;;;;;;6.32;4.70;;;0.50;99.90;;;;;;4998467;28;20497;-58
2023/01/22 01:41:22;;;;;;;7.05;4.35;;;0.50;99.90;;;;;;4997861;28;20073;-56
2023/01/22 01:44:10;;;;;;;6.00;4.88;;;0.50;99.90;;;;;;4998325;28;20101;-58
2023/01/22 01:46:45;;;;;;;5.25;4.25;;;0.50;99.90;;;;;;4998850;28;20388;-54
2023/01/22 01:49:21;;;;;;;4.72;4.18;;;0.60;99.90;;;;;;4998163;28;20458;-57
2023/01/22 01:51:47;;;;;;;4.90;4.40;;;0.50;99.90;;;;;;4998917;28;20633;-57
2023/01/22 01:54:14;;;;;;;6.60;4.38;;;0.50;99.90;;;;;;4998198;28;20053;-60
2023/01/22 01:56:46;;;;;;;5.97;4.00;;;0.50;99.90;;;;;;4997393;28;20885;-56
2023/01/22 01:59:15;;;;;;;5.65;4.70;;;0.50;99.90;;;;;;4996554;28;20030;-60
2023/01/22 02:01:41;;;;;;;8.43;4.55;;;0.50;99.90;;;;;;4995784;28;20415;-55
2023/01/22 02:04:07;;;;;;;5.05;4.45;;;0.50;99.90;;;;;;4995418;28;20117;-56
2023/01/22 02:06:32;;;;;;;7.45;4.43;;;0.50;99.90;;;;;;4998000;28;20026;-57
2023/01/22 02:08:59;;;;;;;6.20;4.57;;;0.60;99.90;;;;;;4998418;28;20034;-59
2023/01/22 02:11:26;;;;;;;5.75;4.38;;;0.50;99.90;;;;;;4997666;28;20018;-53
2023/01/22 02:13:59;;;;;;;5.55;5.00;;;0.50;99.90;;;;;;4997007;28;20030;-56
2023/01/22 02:16:25;;;;;;;7.00;4.53;;;0.60;99.90;;;;;;4997637;28;20093;-55
2023/01/22 02:18:51;;;;;;;6.40;4.47;;;0.50;99.90;;;;;;4996778;28;20114;-53
2023/01/22 02:21:31;;;;;;;5.30;4.55;;;0.50;99.90;;;;;;4997638;28;20033;-59
2023/01/22 02:23:57;;;;;;;6.38;4.63;;;0.50;99.90;;;;;;4998114;28;20081;-52
2023/01/22 02:26:23;;;;;;;5.82;4.15;;;0.50;99.90;;;;;;4998543;28;20026;-56
2023/01/22 02:28:48;;;;;;;8.63;4.63;;;0.50;99.90;;;;;;4999292;28;20034;-55
2023/01/22 02:31:14;;;;;;;4.63;4.13;;;0.50;99.90;;;;;;4997503;28;20140;-53
2023/01/22 02:33:40;;;;;;;4.35;3.95;;;0.50;99.90;;;;;;4998485;28;20075;-56
2023/01/22 02:36:06;;;;;;;5.50;4.47;;;0.60;99.90;;;;;;4998052;28;20135;-60
2023/01/22 02:38:31;;;;;;;6.82;4.55;;;0.60;99.90;;;;;;4998520;28;20030;-57
2023/01/22 02:40:57;;;;;;;6.25;4.47;;;0.60;99.90;;;;;;4997210;28;20455;-54
2023/01/22 02:43:23;;;;;;;6.38;3.95;;;0.60;99.90;;;;;;4998244;28;20043;-60
2023/01/22 02:45:48;;;;;;;5.40;4.38;;;0.60;99.90;;;;;;4997321;28;20137;-61
2023/01/22 02:48:14;;;;;;;6.93;4.40;;;0.60;99.90;;;;;;4997640;28;20041;-61
2023/01/22 02:50:40;;;;;;;7.00;5.05;;;0.60;99.90;;;;;;4996785;28;20068;-58
2023/01/22 02:53:06;;;;;;;6.65;4.75;;;0.60;99.90;;;;;;4998413;28;20037;-57
2023/01/22 02:55:31;;;;;;;7.28;4.72;;;0.60;99.90;;;;;;4998106;28;20026;-55
2023/01/22 02:57:57;;;;;;;5.88;4.10;;;0.60;99.90;;;;;;4997891;28;20030;-60
2023/01/22 03:00:23;;;;;;;5.53;3.75;;;0.60;99.90;;;;;;4996695;28;20726;-57
2023/01/22 03:02:48;;;;;;;5.85;4.35;;;0.70;99.90;;;;;;4994908;28;20026;-59
2023/01/22 03:05:14;;;;;;;9.00;4.53;;;0.70;99.90;;;;;;4995940;28;20104;-58
2023/01/22 03:07:43;;;;;;;5.75;4.50;;;0.70;99.90;;;;;;4998306;28;20109;-60
2023/01/22 03:10:27;;;;;;;7.03;4.30;;;0.70;99.90;;;;;;4997228;28;20069;-57
2023/01/22 03:21:15;;;;;;;5.03;4.03;;;0.70;99.90;;;;;;4997840;28;20084;-54
2023/01/22 03:23:48;;;;;;;5.32;4.10;;;0.60;99.90;;;;;;4998529;28;20034;-55
2023/01/22 03:26:14;;;;;;;7.53;4.25;;;0.60;99.90;;;;;;4996823;28;20025;-59
2023/01/22 03:28:40;;;;;;;5.22;4.72;;;0.70;99.90;;;;;;4997233;28;20080;-58
2023/01/22 03:31:06;;;;;;;4.72;4.13;;;0.70;99.90;;;;;;4998235;28;20035;-58
2023/01/22 03:33:33;;;;;;;4.97;4.35;;;0.70;99.90;;;;;;4996699;28;20052;-59
2023/01/22 03:36:03;;;;;;;7.88;4.03;;;0.70;99.90;;;;;;4998303;28;20058;-55
2023/01/22 03:38:29;;;;;;;7.05;3.92;;;0.70;99.90;;;;;;4996297;28;20049;-54
2023/01/22 03:41:21;;;;;;;4.90;3.83;;;0.70;99.90;;;;;;4997774;28;20477;-56
2023/01/22 03:43:47;;;;;;;5.88;4.00;;;0.70;99.90;;;;;;4996319;28;20050;-59
2023/01/22 03:46:18;;;;;;;6.40;4.43;;;0.70;99.90;;;;;;4996993;28;20028;-60
2023/01/22 03:48:44;;;;;;;6.47;4.30;;;0.70;99.90;;;;;;4997014;28;20048;-55
2023/01/22 03:51:14;;;;;;;5.10;4.22;;;0.70;99.90;;;;;;4998438;28;20480;-56
2023/01/22 03:53:41;;;;;;;7.35;4.07;;;0.70;99.90;;;;;;4997185;28;20085;-56
2023/01/22 03:56:11;;;;;;;5.05;4.18;;;0.70;99.90;;;;;;4996800;28;20034;-57
2023/01/22 03:58:37;;;;;;;9.07;4.55;;;0.80;99.90;;;;;;4997706;28;20022;-56
2023/01/22 04:01:08;;;;;;;4.20;3.70;;;0.80;99.90;;;;;;4996852;28;20026;-52
2023/01/22 04:03:34;;;;;;;4.88;3.78;;;0.80;99.90;;;;;;4996692;28;20030;-55
2023/01/22 04:06:00;;;;;;;5.78;4.22;;;0.80;99.90;;;;;;4996412;28;20056;-60
2023/01/22 04:08:27;;;;;;;5.88;4.25;;;0.80;99.90;;;;;;4996377;28;20033;-57
2023/01/22 04:10:53;;;;;;;4.63;3.63;;;0.70;99.90;;;;;;4996205;28;20058;-56
2023/01/22 04:13:19;;;;;;;5.45;3.58;;;0.80;99.90;;;;;;4997468;28;20068;-53
2023/01/22 04:15:45;;;;;;;5.65;4.18;;;0.80;99.90;;;;;;5000019;28;20087;-53
2023/01/22 04:18:11;;;;;;;5.75;3.50;;;0.80;99.90;;;;;;4999782;28;20084;-50
2023/01/22 04:20:37;;;;;;;5.95;3.85;;;0.80;99.90;;;;;;5026296;22;20784;-57
2023/01/22 04:23:04;;;;;;;6.15;3.83;;;0.80;99.90;;;;;;5020453;28;20025;-59
2023/01/22 04:25:30;;;;;;;6.22;4.63;;;0.80;99.90;;;;;;5019552;28;20022;-57
2023/01/22 04:27:55;;;;;;;6.38;3.58;;;0.80;99.90;;;;;;5021013;28;20415;-57
2023/01/22 04:30:21;;;;;;;9.25;4.40;;;0.80;99.90;;;;;;5021104;28;20064;-58
2023/01/22 04:32:46;;;;;;;7.45;4.85;;;0.80;99.90;;;;;;5019999;28;20025;-58
2023/01/22 04:35:12;;;;;;;4.95;3.70;;;0.80;99.90;;;;;;5017778;28;20034;-58
2023/01/22 04:37:37;;;;;;;4.55;3.90;;;0.90;99.90;;;;;;5019348;28;20026;-57
2023/01/22 04:40:04;;;;;;;4.25;3.50;;;0.90;99.90;;;;;;5019785;28;20026;-57
2023/01/22 04:42:31;;;;;;;4.47;3.88;;;0.80;99.90;;;;;;5019407;28;20072;-58
2023/01/22 04:44:57;;;;;;;4.97;3.67;;;0.80;99.90;;;;;;5019459;28;20037;-55
2023/01/22 04:47:22;;;;;;;4.45;3.42;;;0.90;99.90;;;;;;5020837;28;20033;-56
2023/01/22 04:49:48;;;;;;;5.00;3.28;;;0.80;99.90;;;;;;5018914;28;20021;-56
2023/01/22 04:52:13;;;;;;;5.05;4.35;;;0.80;99.90;;;;;;5019030;28;20527;-57
2023/01/22 04:54:39;;;;;;;5.28;3.65;;;0.80;99.90;;;;;;5020317;28;20017;-58
2023/01/22 04:57:05;;;;;;;4.75;3.70;;;0.80;99.90;;;;;;5020075;28;20060;-56
2023/01/22 04:59:30;;;;;;;5.00;3.55;;;0.80;99.90;;;;;;5018799;28;20026;-56
2023/01/22 05:01:56;;;;;;;6.53;3.35;;;0.80;99.90;;;;;;5018028;28;20025;-55
2023/01/22 05:04:22;;;;;;;4.65;3.75;;;0.80;99.90;;;;;;5019242;28;20026;-55
2023/01/22 05:06:48;;;;;;;5.18;4.00;;;0.80;99.90;;;;;;5019133;28;20029;-57
2023/01/22 05:09:14;;;;;;;7.20;3.65;;;0.80;99.90;;;;;;5018337;28;20029;-58
2023/01/22 05:11:40;;;;;;;6.88;4.05;;;0.80;99.90;;;;;;5020234;28;20022;-59
2023/01/22 05:14:06;;;;;;;5.38;3.55;;;0.80;99.90;;;;;;5020116;28;20496;-56
2023/01/22 05:16:32;;;;;;;4.75;3.70;;;0.90;99.90;;;;;;5019619;28;20484;-58
2023/01/22 05:18:57;;;;;;;7.78;4.00;;;0.80;99.90;;;;;;5018387;28;20115;-57
2023/01/22 05:21:23;;;;;;;7.75;4.05;;;0.90;99.90;;;;;;5017098;28;20034;-58
2023/01/22 05:23:49;;;;;;;4.25;3.67;;;0.90;99.90;;;;;;5019074;28;20013;-58
2023/01/22 05:26:14;;;;;;;6.30;3.75;;;0.80;99.90;;;;;;5016892;28;20025;-57
2023/01/22 05:28:40;;;;;;;4.22;3.83;;;0.90;99.90;;;;;;5017710;28;20018;-56
2023/01/22 05:31:06;;;;;;;5.80;3.70;;;0.90;99.90;;;;;;5019308;28;20033;-56
2023/01/22 05:33:31;;;;;;;6.65;4.18;;;0.90;99.90;;;;;;5019690;28;20028;-56
2023/01/22 05:35:58;;;;;;;4.28;3.70;;;0.90;99.90;;;;;;5018988;28;20488;-57
2023/01/22 05:38:24;;;;;;;6.65;3.20;;;0.90;99.90;;;;;;5015884;28;20043;-56
2023/01/22 05:40:50;;;;;;;5.28;4.30;;;0.90;99.90;;;;;;5019009;28;20806;-57
2023/01/22 05:43:16;;;;;;;8.43;3.78;;;0.90;99.90;;;;;;5018535;28;20136;-55
2023/01/22 05:45:41;;;;;;;6.70;4.15;;;0.90;99.90;;;;;;5019204;28;20026;-56
2023/01/22 05:48:07;;;;;;;5.30;3.55;;;0.90;99.90;;;;;;5019239;28;20037;-53
2023/01/22 05:50:33;;;;;;;6.75;4.18;;;0.90;99.90;;;;;;5018231;28;20095;-58
2023/01/22 05:52:58;;;;;;;6.18;3.88;;;0.90;99.90;;;;;;5019404;28;20063;-56
2023/01/22 05:55:24;;;;;;;7.22;3.90;;;0.90;99.90;;;;;;5001239;28;20030;-56
2023/01/22 05:57:49;;;;;;;4.95;4.00;;;0.90;99.90;;;;;;5019584;28;20527;-56
2023/01/22 06:00:15;;;;;;;6.90;3.88;;;0.90;99.90;;;;;;5018020;28;20025;-58
2023/01/22 06:02:41;;;;;;;5.78;3.70;;;0.90;99.90;;;;;;5019988;28;20368;-57
2023/01/22 06:05:07;;;;;;;5.95;3.90;;;0.90;99.90;;;;;;5018780;28;20034;-56
2023/01/22 06:07:33;;;;;;;5.07;3.80;;;0.90;99.90;;;;;;5017599;28;20044;-54
2023/01/22 06:09:58;;;;;;;6.90;4.25;;;0.90;99.90;;;;;;5018610;28;20038;-56
2023/01/22 06:12:24;;;;;;;4.18;3.55;;;0.90;99.90;;;;;;5015570;28;20041;-54
2023/01/22 06:14:49;;;;;;;4.53;3.60;;;0.90;99.90;;;;;;5018164;28;20024;-56
2023/01/22 06:17:15;;;;;;;6.97;3.92;;;0.90;99.90;;;;;;5018102;28;20104;-57
2023/01/22 06:19:41;;;;;;;6.10;3.33;;;0.90;99.90;;;;;;5017139;28;20396;-56
2023/01/22 06:22:07;;;;;;;4.40;3.58;;;0.90;99.90;;;;;;5017250;28;20034;-56
2023/01/22 06:24:32;;;;;;;6.18;3.72;;;0.90;99.90;;;;;;5019014;28;20033;-56
2023/01/22 06:26:58;;;;;;;7.93;3.88;;;0.90;99.90;;;;;;5018963;28;20030;-56
2023/01/22 06:29:23;;;;;;;4.80;4.00;;;0.90;99.90;;;;;;5019254;28;20503;-55
2023/01/22 06:31:49;;;;;;;7.60;3.25;;;0.90;99.90;;;;;;5017222;28;20511;-55
2023/01/22 06:34:15;;;;;;;5.25;3.83;;;0.90;99.90;;;;;;5017101;28;20017;-56
2023/01/22 06:36:41;;;;;;;9.85;3.22;;;0.90;99.90;;;;;;5017552;28;20399;-56
2023/01/22 06:39:06;;;;;;;5.00;3.80;;;0.90;99.90;;;;;;5015242;28;20033;-57
2023/01/22 06:41:32;;;;;;;4.00;3.50;;;1.00;99.90;;;;;;5017138;28;20039;-56
2023/01/22 06:43:58;;;;;;;4.28;3.40;;;1.00;99.90;;;;;;5016558;28;20029;-57
2023/01/22 06:46:23;;;;;;;6.70;3.70;;;0.90;99.90;;;;;;5016925;28;20072;-55
2023/01/22 06:48:49;;;;;;;6.35;3.97;;;1.00;99.90;;;;;;5018639;28;20060;-57
2023/01/22 06:51:14;;;;;;;4.70;3.75;;;1.00;99.90;;;;;;5017379;28;20018;-54
2023/01/22 06:53:40;;;;;;;9.50;4.13;;;1.00;99.90;;;;;;5015867;28;20018;-57
2023/01/22 06:56:06;;;;;;;7.20;3.85;;;1.00;99.90;;;;;;5016756;28;20595;-57
2023/01/22 06:58:31;;;;;;;5.90;4.00;;;1.00;99.90;;;;;;5016842;28;20322;-57
2023/01/22 07:01:01;;;;;;;4.30;3.53;;;1.00;99.90;;;;;;5017592;28;20470;-56
2023/01/22 07:03:27;;;;;;;8.23;3.55;;;1.00;99.90;;;;;;5015965;28;20033;-57
2023/01/22 07:05:57;;;;;;;4.78;3.70;;;1.10;99.90;;;;;;5017492;28;20022;-56
2023/01/22 07:08:23;;;;;;;5.70;4.32;;;1.10;99.90;;;;;;5016702;28;20034;-56
2023/01/22 07:10:49;;;;;;;5.28;3.63;;;1.10;99.90;;;;;;5017369;28;20028;-54
2023/01/22 07:13:15;;;;;;;6.50;4.55;;;1.10;99.90;;;;;;4998702;28;20017;-55
2023/01/22 07:15:41;;;;;;;10.65;4.03;;;1.10;99.90;;;;;;5018146;28;20052;-54
2023/01/22 07:18:08;;;;;;;8.27;4.20;;;1.10;99.90;;;;;;5017866;28;20021;-55
2023/01/22 07:20:33;;;;;;;5.80;3.92;;;1.10;99.90;;;;;;5016276;28;20096;-56
2023/01/22 07:22:59;;;;;;;7.63;4.18;;;1.20;99.90;;;;;;5016611;28;20479;-54
2023/01/22 07:25:26;;;;;;;8.57;3.83;;;1.20;99.90;;;;;;5015822;28;20034;-52
2023/01/22 07:27:51;;;;;;;5.88;4.13;;;1.20;99.90;;;;;;5017439;28;20092;-54
2023/01/22 07:30:17;;;;;;;6.65;3.63;;;1.20;99.90;;;;;;5017951;28;20037;-53
2023/01/22 07:32:43;;;;;;;5.47;3.72;;;1.20;99.90;;;;;;5017246;28;20091;-56
2023/01/22 07:35:09;;;;;;;7.75;4.10;;;1.20;99.90;;;;;;5017282;28;20029;-56
2023/01/22 07:37:35;;;;;;;6.18;3.88;;;1.30;99.90;;;;;;5015743;28;20029;-57
2023/01/22 07:40:01;;;;;;;6.82;4.25;;;1.30;99.90;;;;;;5016823;28;20476;-57
2023/01/22 07:42:26;;;;;;;7.47;4.68;;;1.30;99.90;;;;;;5016261;28;20034;-56
2023/01/22 07:44:52;;;;;;;5.68;3.53;;;1.30;99.90;;;;;;5014947;28;20064;-56
2023/01/22 07:47:17;;;;;;;6.68;4.35;;;1.30;99.90;;;;;;5016021;28;20492;-56
2023/01/22 07:49:44;;;;;;;9.55;4.25;;;1.40;99.90;;;;;;5017732;28;20441;-53
2023/01/22 07:52:09;;;;;;;10.75;4.70;;;1.40;99.90;;;;;;5020360;28;20018;-54
2023/01/22 07:54:35;;;;;;;8.65;4.68;;;1.40;99.90;;;;;;5020944;28;20048;-57
2023/01/22 07:57:02;;;;;;;5.03;4.28;;;1.40;99.90;;;;;;5020674;28;20045;-55
2023/01/22 07:59:28;;;;;;;8.07;4.20;;;1.40;99.90;;;;;;5019569;28;20026;-56
2023/01/22 08:01:54;;;;;;;10.00;4.68;;;1.40;99.90;;;;;;5020119;28;20029;-53
2023/01/22 08:04:20;;;;;;;9.95;4.43;;;1.50;99.90;;;;;;5019439;28;20117;-56
2023/01/22 08:06:45;;;;;;;7.65;3.97;;;1.50;99.90;;;;;;5020605;28;20451;-54
2023/01/22 08:09:11;;;;;;;8.88;4.25;;;1.50;99.90;;;;;;5021367;28;20558;-55
2023/01/22 08:11:36;;;;;;;6.05;3.65;;;1.50;99.90;;;;;;5020625;28;20044;-53
2023/01/22 08:14:02;;;;;;;4.45;3.83;;;1.50;99.90;;;;;;5021592;28;20025;-54
2023/01/22 08:16:28;;;;;;;7.25;4.05;;;1.50;99.90;;;;;;5021070;28;20026;-56
2023/01/22 08:18:54;;;;;;;6.93;4.07;;;1.50;99.90;;;;;;5020821;28;20022;-57
2023/01/22 08:21:19;;;;;;;5.60;3.80;;;1.50;99.90;;;;;;5020371;28;20030;-54
2023/01/22 08:23:45;;;;;;;5.40;3.63;;;1.50;99.90;;;;;;5020636;28;20028;-56
2023/01/22 08:26:11;;;;;;;10.48;4.47;;;1.60;99.90;;;;;;5019949;28;20097;-56
2023/01/22 08:28:37;;;;;;;5.65;3.25;;;1.60;99.90;;;;;;5021052;28;20021;-56
2023/01/22 08:31:03;;;;;;;8.38;3.83;;;1.60;99.90;;;;;;5020674;28;20030;-57
2023/01/22 08:33:32;;;;;;;7.57;4.65;;;1.60;99.90;;;;;;5018912;28;20018;-56
2023/01/22 08:35:57;;;;;;;5.97;4.22;;;1.60;99.90;;;;;;5017925;28;20026;-56
2023/01/22 08:38:23;;;;;;;7.57;3.95;;;1.60;99.90;;;;;;5020081;28;20408;-56
2023/01/22 08:40:50;;;;;;;10.57;4.38;;;1.60;99.90;;;;;;5020458;28;20060;-57
2023/01/22 08:43:16;;;;;;;4.95;3.47;;;1.70;99.90;;;;;;5018701;28;20369;-56
2023/01/22 08:45:41;;;;;;;6.07;3.28;;;1.70;99.90;;;;;;5018532;28;20030;-57
2023/01/22 08:48:07;;;;;;;7.68;3.97;;;1.70;99.90;;;;;;5020157;28;20033;-55
2023/01/22 08:50:33;;;;;;;6.47;3.45;;;1.70;99.90;;;;;;5019326;28;20036;-57
2023/01/22 08:52:58;;;;;;;8.48;4.05;;;1.70;99.90;;;;;;5018531;28;20024;-55
2023/01/22 08:55:26;;;;;;;5.78;3.88;;;1.70;99.90;;;;;;5019716;28;20031;-58
2023/01/22 08:57:55;;;;;;;6.15;3.70;;;1.70;99.90;;;;;;5018889;28;20057;-56
2023/01/22 09:00:22;;;;;;;5.78;4.00;;;1.70;99.90;;;;;;5019270;28;20160;-57
2023/01/22 09:02:48;;;;;;;7.57;3.67;;;1.70;99.90;;;;;;5017588;28;20030;-57
2023/01/22 09:05:14;;;;;;;4.47;3.60;;;1.70;99.90;;;;;;5019987;28;20048;-56
2023/01/22 09:07:40;;;;;;;4.57;4.13;;;1.80;99.90;;;;;;5018855;28;20104;-59
2023/01/22 09:10:07;;;;;;;6.30;3.63;;;1.80;99.90;;;;;;5019609;28;20025;-57
2023/01/22 09:12:33;;;;;;;6.43;3.85;;;1.80;99.90;;;;;;5017124;28;20030;-54
2023/01/22 09:14:59;;;;;;;8.77;3.90;;;1.80;99.90;;;;;;5020039;28;20526;-55
2023/01/22 09:17:24;;;;;;;8.30;3.90;;;1.90;99.90;;;;;;5018141;28;20042;-59
2023/01/22 09:19:50;;;;;;;9.50;4.00;;;1.90;99.90;;;;;;5019573;28;20119;-52
2023/01/22 09:22:15;;;;;;;6.57;3.70;;;1.80;99.90;;;;;;5018405;28;20190;-53
2023/01/22 09:24:41;;;;;;;6.65;3.65;;;1.90;99.90;;;;;;5019374;28;20504;-56
2023/01/22 09:27:08;;;;;;;6.82;4.28;;;1.90;99.90;;;;;;5019485;28;20025;-53
2023/01/22 09:29:33;;;;;;;5.57;4.00;;;1.90;99.90;;;;;;5017576;28;20034;-57
2023/01/22 09:31:59;;;;;;;4.72;3.53;;;1.90;99.90;;;;;;5020251;28;20029;-56
2023/01/22 09:34:25;;;;;;;4.68;3.58;;;1.90;99.90;;;;;;5019434;28;20116;-57
2023/01/22 09:36:50;;;;;;;8.82;4.10;;;1.90;99.90;;;;;;5017431;28;20119;-55
2023/01/22 09:39:16;;;;;;;7.63;3.50;;;2.00;99.90;;;;;;5017646;28;20026;-55
2023/01/22 09:41:47;;;;;;;4.57;3.72;;;2.00;99.90;;;;;;5019190;28;20025;-55
2023/01/22 09:44:26;;;;;;;10.18;4.07;;;2.00;99.90;;;;;;5019797;28;20106;-55
2023/01/22 09:47:10;;;;;;;7.07;3.78;;;2.00;99.90;;;;;;5017722;28;20037;-55
2023/01/22 09:50:00;;;;;;;9.40;4.15;;;2.00;99.90;;;;;;5018350;28;20026;-58
2023/01/22 09:52:32;;;;;;;6.50;3.97;;;2.00;99.90;;;;;;5020524;28;20030;-57
2023/01/22 09:54:58;;;;;;;6.78;3.97;;;2.00;99.90;;;;;;5018765;28;20112;-57
2023/01/22 09:57:23;;;;;;;9.20;3.55;;;2.00;99.90;;;;;;5019897;28;20108;-56
2023/01/22 09:59:52;;;;;;;7.45;3.80;;;2.00;99.90;;;;;;5018527;28;20514;-55
2023/01/22 10:02:38;;;;;;;3.47;2.72;;;2.00;99.90;;;;;;5018586;28;20075;-55
2023/01/22 10:05:29;;;;;;;5.78;3.13;;;2.00;99.90;;;;;;5017163;28;20030;-54
2023/01/22 10:08:16;;;;;;;7.72;3.05;;;2.00;99.90;;;;;;5017394;28;20507;-58
2023/01/22 10:10:42;;;;;;;6.28;3.28;;;2.10;99.90;;;;;;5018243;28;20439;-57
2023/01/22 10:13:13;;;;;;;6.75;3.33;;;2.00;99.90;;;;;;5017242;28;20084;-58
2023/01/22 10:15:39;;;;;;;6.35;3.38;;;2.10;99.90;;;;;;5017423;28;20036;-59
2023/01/22 10:18:36;;;;;;;6.28;3.70;;;2.10;99.90;;;;;;5018463;28;20026;-54
2023/01/22 10:21:17;;;;;;;5.15;3.72;;;2.10;99.90;;;;;;5151244;22;20140;-58
2023/01/22 10:23:43;;;;;;;7.90;3.85;;;2.10;99.90;;;;;;5017495;28;20020;-57
2023/01/22 10:26:46;;;;;;;5.03;3.55;;;2.20;99.90;;;;;;5017611;28;20014;-58
2023/01/22 10:29:21;;;;;;;6.95;3.50;;;2.20;99.90;;;;;;5016374;28;20075;-58
2023/01/22 10:31:50;;;;;;;3.95;3.13;;;2.20;99.90;;;;;;5011653;28;20361;-59
2023/01/22 10:34:29;;;;;;;8.90;3.88;;;2.30;99.90;;;;;;5004194;28;20034;-56
2023/01/22 10:36:58;;;;;;;8.27;4.30;;;2.30;99.90;;;;;;5004697;28;20026;-56
2023/01/22 10:39:23;;;;;;;7.25;3.55;;;2.30;99.90;;;;;;5007435;28;20034;-58
2023/01/22 10:41:49;;;;;;;7.43;3.90;;;2.30;99.90;;;;;;5006939;28;20041;-60
2023/01/22 10:44:15;;;;;;;9.77;3.22;;;2.30;99.90;;;;;;5007805;28;20030;-55
2023/01/22 10:46:40;;;;;;;6.65;3.30;;;2.30;99.90;;;;;;5005179;28;20072;-55
2023/01/22 10:49:18;;;;;;;3.90;3.10;;;2.40;99.90;;;;;;5006422;28;20049;-52
2023/01/22 10:51:55;;;;;;;7.30;3.25;;;2.40;99.90;;;;;;5005698;28;20030;-62
2023/01/22 10:54:26;;;;;;;4.90;3.05;;;2.40;99.90;;;;;;5008311;28;20109;-54
2023/01/22 10:57:21;;;;;;;8.90;3.30;;;2.40;99.90;;;;;;5004162;28;20037;-61
2023/01/22 11:00:04;;;;;;;8.88;3.78;;;2.40;99.90;;;;;;5006286;28;20436;-60
2023/01/22 11:02:33;;;;;;;4.40;3.10;;;2.50;99.90;;;;;;5009242;28;20025;-57
2023/01/22 11:05:17;;;;;;;6.38;2.90;;;2.50;99.90;;;;;;5006703;28;20036;-60
2023/01/22 11:07:49;;;;;;;7.28;3.00;;;2.50;99.90;;;;;;5005307;28;20404;-60
2023/01/22 11:10:21;;;;;;;5.82;3.33;;;2.60;99.90;;;;;;5005870;28;20032;-62
2023/01/22 11:12:58;;;;;;;7.00;3.58;;;2.60;99.90;;;;;;5005633;28;20083;-60
2023/01/22 11:15:52;;;;;;;5.72;2.80;;;2.70;99.90;;;;;;5005682;28;20057;-61
2023/01/22 11:18:39;;;;;;;7.45;2.60;;;2.70;99.90;;;;;;5007373;28;20026;-60
2023/01/22 11:21:15;;;;;;;;;;;2.70;99.90;;;;;;5006621;28;20041;-61
2023/01/22 11:23:58;;;;;;;6.45;2.42;;;2.70;99.90;;;;;;5006391;28;19909;-58
2023/01/22 11:26:56;;;;;;;6.97;2.80;;;2.70;99.90;;;;;;5006863;28;20507;-55
2023/01/22 11:29:51;;;;;;;7.30;2.90;;;2.70;99.90;;;;;;5006619;28;20034;-60
2023/01/22 11:32:29;;;;;;;4.70;2.33;;;2.70;99.90;;;;;;5006157;28;20049;-60
2023/01/22 11:35:13;;;;;;;4.03;2.58;;;2.70;99.90;;;;;;5006399;28;20534;-58
2023/01/22 11:37:57;;;;;;;6.18;2.63;;;2.70;99.90;;;;;;5006629;28;20022;-55
2023/01/22 11:40:30;;;;;;;3.85;2.47;;;2.80;99.90;;;;;;5003801;28;20026;-58
2023/01/22 11:43:23;;;;;;;4.75;2.55;;;2.80;99.90;;;;;;5007077;28;20101;-60
2023/01/22 11:45:51;;;;;;;4.93;2.47;;;2.80;99.90;;;;;;5004814;28;20099;-58
2023/01/22 11:48:28;;;;;;;4.90;2.78;;;2.80;99.90;;;;;;5006086;28;20117;-61
2023/01/22 11:51:21;;;;;;;4.53;2.60;;;2.90;99.90;;;;;;5000927;28;20160;-56
2023/01/22 11:53:52;;;;;;;3.78;2.15;;;2.90;99.90;;;;;;5004357;28;20500;-57
2023/01/22 11:56:29;;;;;;;6.13;2.30;;;3.00;99.90;;;;;;5005636;28;20499;-60
2023/01/22 11:59:05;;;;;;;7.68;1.83;;;3.00;99.90;;;;;;5006469;28;20022;-59
2023/01/22 12:02:01;;;;;;;10.80;3.25;;;3.00;99.90;;;;;;5007697;28;20045;-58
2023/01/22 12:04:42;;;;;;;8.13;2.40;;;3.00;99.90;;;;;;5004428;28;20045;-59
2023/01/22 12:07:34;;;;;;;7.22;2.20;;;3.00;99.90;;;;;;5007110;28;20427;-62
2023/01/22 12:10:38;;;;;;;3.95;1.92;;;3.00;99.90;;;;;;5005808;28;20034;-55
2023/01/22 12:13:25;;;;;;;7.15;2.60;;;3.10;99.90;;;;;;5003674;28;20200;-59
2023/01/22 12:16:02;;;;;;;3.70;2.40;;;3.00;99.90;;;;;;5005017;28;20022;-59
2023/01/22 12:18:47;;;;;;;3.65;2.00;;;3.10;99.90;;;;;;5001941;28;20101;-60
2023/01/22 12:21:28;;;;;;;5.13;2.30;;;3.10;99.90;;;;;;5003379;28;20041;-60
2023/01/22 12:24:11;;;;;;;9.75;2.55;;;3.10;99.90;;;;;;5006228;28;20025;-60
2023/01/22 12:27:08;;;;;;;9.18;2.33;;;3.10;99.90;;;;;;5006203;28;20125;-62
2023/01/22 12:29:43;;;;;;;11.87;2.37;;;3.10;99.90;;;;;;5004556;28;20175;-57
2023/01/22 12:32:14;;;;;;;7.28;3.38;;;3.10;99.90;;;;;;5005676;28;20022;-63
2023/01/22 12:34:46;;;;;;;4.70;2.33;;;3.10;99.90;;;;;;5005268;28;20022;-62
2023/01/22 12:37:16;;;;;;;6.47;2.42;;;3.10;99.90;;;;;;5007354;28;20034;-61
2023/01/22 12:40:01;;;;;;;7.88;2.55;;;3.10;99.90;;;;;;5008378;28;20048;-58
2023/01/22 12:42:38;;;;;;;3.22;1.73;;;3.10;99.90;;;;;;5008924;28;20065;-57
2023/01/22 12:45:38;;;;;;;5.57;2.55;;;3.10;99.90;;;;;;5009414;28;20555;-61
2023/01/22 12:48:22;;;;;;;6.05;1.65;;;3.10;99.90;;;;;;5008731;28;20032;-62
2023/01/22 12:50:53;;;;;;;4.35;1.70;;;3.10;99.90;;;;;;5009492;28;20144;-61
2023/01/22 12:53:27;;;;;;;6.10;2.03;;;3.20;99.90;;;;;;5008858;28;20026;-61
2023/01/22 12:56:10;;;;;;;8.63;2.30;;;3.20;99.90;;;;;;5007563;28;20037;-60
2023/01/22 12:58:37;;;;;;;3.75;2.13;;;3.20;99.90;;;;;;5010014;28;20084;-59
2023/01/22 13:01:10;;;;;;;6.80;2.70;;;3.20;99.90;;;;;;5008375;28;20040;-58
2023/01/22 13:03:37;;;;;;;6.00;1.85;;;3.20;99.90;;;;;;5009092;28;20026;-60
2023/01/22 13:06:17;;;;;;;5.90;2.00;;;3.20;99.90;;;;;;5009312;28;20034;-59
2023/01/22 13:08:44;;;;;;;4.22;1.85;;;3.20;99.90;;;;;;5009496;28;20022;-61
2023/01/22 13:11:12;;;;;;;2.90;1.77;;;3.20;99.90;;;;;;5008829;28;20026;-59
2023/01/22 13:14:27;;;;;;;4.95;2.40;;;3.20;99.90;;;;;;5008713;28;20037;-59
2023/01/22 13:17:02;;;;;;;5.15;1.98;;;3.20;99.90;;;;;;4985823;28;20038;-61
2023/01/22 13:19:45;;;;;;;7.32;2.17;;;3.20;99.90;;;;;;5008104;28;20034;-59